Time;durP1;ratioP1;P1;durP2;ratioP2;P2;SDS_P1;SDS_P2;PMS_P1;PMS_P2;Temp;Humidity;BMP_temperature;BMP_pressure;BME280_temperature;BME280_humidity;BME280_pressure;Samples;Min_cycle;Max_cycle;Signal;HPM_P1;HPM_P2
2022/05/02 00:00:40;;;;;;;11.10;6.20;;;23.90;39.50;;;;;;6262804;27;86686;-61
2022/05/02 00:03:41;;;;;;;7.55;5.22;;;23.90;39.40;;;;;;6270822;27;80366;-61
2022/05/02 00:06:41;;;;;;;10.02;5.70;;;23.90;39.40;;;;;;6282387;27;80630;-61
2022/05/02 00:09:42;;;;;;;8.02;5.82;;;23.90;39.40;;;;;;6283133;27;80380;-61
2022/05/02 00:12:42;;;;;;;10.20;6.13;;;23.90;39.40;;;;;;6283687;27;80227;-62
2022/05/02 00:15:43;;;;;;;9.25;5.93;;;23.90;39.40;;;;;;6285959;27;80742;-60
2022/05/02 00:18:44;;;;;;;8.43;6.15;;;23.80;39.40;;;;;;6264659;27;80340;-61
2022/05/02 00:21:44;;;;;;;7.78;5.32;;;23.80;39.50;;;;;;6286201;27;80891;-61
2022/05/02 00:24:45;;;;;;;9.18;5.80;;;23.90;39.60;;;;;;6285666;27;80395;-61
2022/05/02 00:27:45;;;;;;;8.07;5.35;;;23.90;39.60;;;;;;6275675;27;80383;-61
2022/05/02 00:30:46;;;;;;;10.85;6.03;;;23.90;39.50;;;;;;6261209;27;80377;-61
2022/05/02 00:33:46;;;;;;;10.00;5.80;;;23.90;39.60;;;;;;6260992;27;80680;-61
2022/05/02 00:36:47;;;;;;;9.60;5.35;;;23.80;39.60;;;;;;6260940;27;81031;-61
2022/05/02 00:39:47;;;;;;;9.63;5.78;;;23.80;39.60;;;;;;6277072;27;80235;-61
2022/05/02 00:42:48;;;;;;;9.68;5.85;;;23.80;39.70;;;;;;6285458;27;81193;-61
2022/05/02 00:45:49;;;;;;;11.73;6.32;;;23.80;39.70;;;;;;6274063;27;80679;-61
2022/05/02 00:48:49;;;;;;;8.77;6.00;;;23.80;39.70;;;;;;6278088;27;80582;-61
2022/05/02 00:51:50;;;;;;;10.60;6.30;;;23.80;39.60;;;;;;6260771;27;80484;-62
2022/05/02 00:54:50;;;;;;;8.80;5.85;;;23.80;39.60;;;;;;6275251;27;80511;-61
2022/05/02 00:57:51;;;;;;;8.23;5.80;;;23.80;39.60;;;;;;6286354;27;80393;-61
2022/05/02 01:00:51;;;;;;;8.63;6.03;;;23.80;39.60;;;;;;6285671;27;81087;-61
2022/05/02 01:03:52;;;;;;;7.47;5.40;;;23.80;39.60;;;;;;6285252;27;80364;-61
2022/05/02 01:07:11;;;;;;;10.27;5.78;;;23.80;39.60;;;;;;6278745;27;80772;-63
2022/05/02 01:10:16;;;;;;;7.60;5.43;;;23.80;39.60;;;;;;6268491;27;81733;-61
2022/05/02 01:13:17;;;;;;;7.47;5.53;;;23.80;40.00;;;;;;6259479;27;80511;-61
2022/05/02 01:16:18;;;;;;;9.55;5.70;;;23.80;39.90;;;;;;6283511;27;80386;-61
2022/05/02 01:19:18;;;;;;;11.77;6.47;;;23.80;39.80;;;;;;6277736;27;80963;-60
2022/05/02 01:22:19;;;;;;;8.73;6.32;;;23.80;39.80;;;;;;6257889;27;80259;-61
2022/05/02 01:25:19;;;;;;;10.43;6.00;;;23.80;39.70;;;;;;6259018;27;81049;-61
2022/05/02 01:28:20;;;;;;;8.05;5.07;;;23.80;39.70;;;;;;6258725;27;81627;-61
2022/05/02 01:31:20;;;;;;;10.68;6.13;;;23.70;39.70;;;;;;6280713;27;80709;-62
2022/05/02 01:34:21;;;;;;;10.82;6.18;;;23.70;39.80;;;;;;6280237;27;80432;-61
2022/05/02 01:37:21;;;;;;;8.52;5.72;;;23.70;39.70;;;;;;6259540;27;80694;-61
2022/05/02 01:40:22;;;;;;;9.63;5.95;;;23.80;39.90;;;;;;6259341;27;80644;-61
2022/05/02 01:43:22;;;;;;;12.10;6.60;;;23.70;39.80;;;;;;6258066;27;81613;-61
2022/05/02 01:46:23;;;;;;;8.65;5.72;;;23.80;39.80;;;;;;6259274;27;80472;-62
2022/05/02 01:49:23;;;;;;;9.80;5.55;;;23.80;39.80;;;;;;6261193;27;80476;-61
2022/05/02 01:52:24;;;;;;;10.07;5.90;;;23.80;39.80;;;;;;6284601;27;80434;-61
2022/05/02 01:55:24;;;;;;;8.55;6.30;;;23.70;39.80;;;;;;6284230;27;80817;-61
2022/05/02 01:58:25;;;;;;;12.65;6.53;;;23.70;39.80;;;;;;6284299;27;80310;-61
2022/05/02 02:01:25;;;;;;;10.02;5.75;;;23.70;39.90;;;;;;6283705;27;81291;-61
2022/05/02 02:07:45;;;;;;;10.30;6.70;;;23.70;40.00;;;;;;6259006;27;80512;-62
2022/05/02 02:10:46;;;;;;;9.30;5.75;;;23.70;40.00;;;;;;6269308;27;80740;-61
2022/05/02 02:13:47;;;;;;;12.05;6.82;;;23.70;39.90;;;;;;6284290;27;80506;-61
2022/05/02 02:16:47;;;;;;;11.65;6.05;;;23.70;39.90;;;;;;6265786;27;81489;-61
2022/05/02 02:19:48;;;;;;;9.68;6.47;;;23.70;40.00;;;;;;6259104;27;80529;-62
2022/05/02 02:22:49;;;;;;;9.18;5.93;;;23.70;40.10;;;;;;6258757;27;80598;-61
2022/05/02 02:25:50;;;;;;;8.13;5.85;;;23.70;39.90;;;;;;6258281;27;80278;-61
2022/05/02 02:28:50;;;;;;;8.77;6.45;;;23.70;40.00;;;;;;6258335;27;86015;-61
2022/05/02 02:31:51;;;;;;;10.13;6.40;;;23.70;40.00;;;;;;6273393;27;81780;-61
2022/05/02 02:34:51;;;;;;;8.13;5.72;;;23.70;40.00;;;;;;6271960;27;80711;-61
2022/05/02 02:37:52;;;;;;;9.90;6.13;;;23.70;40.00;;;;;;6258111;27;80515;-61
2022/05/02 02:40:52;;;;;;;8.77;5.63;;;23.70;39.90;;;;;;6263788;27;80729;-61
2022/05/02 02:43:54;;;;;;;13.23;6.28;;;23.70;40.20;;;;;;6282858;27;80873;-61
2022/05/02 02:46:54;;;;;;;9.35;5.75;;;23.70;40.20;;;;;;6268842;27;80865;-61
2022/05/02 02:49:55;;;;;;;9.75;5.95;;;23.70;40.10;;;;;;6257512;27;80350;-61
2022/05/02 02:52:56;;;;;;;8.48;5.68;;;23.70;40.00;;;;;;6256896;27;81418;-60
2022/05/02 02:55:56;;;;;;;13.15;6.97;;;23.70;40.00;;;;;;6261919;27;80632;-60
2022/05/02 02:58:57;;;;;;;8.20;5.78;;;23.70;40.00;;;;;;6283045;27;80502;-60
2022/05/02 03:01:57;;;;;;;9.45;6.28;;;23.70;40.00;;;;;;6282578;27;80135;-63
2022/05/02 03:08:17;;;;;;;10.77;6.30;;;23.70;40.40;;;;;;6283044;27;80574;-61
2022/05/02 03:11:17;;;;;;;9.75;6.28;;;23.70;40.70;;;;;;6278608;27;80708;-61
2022/05/02 03:14:18;;;;;;;8.13;6.05;;;23.70;40.70;;;;;;6257956;27;80375;-61
2022/05/02 03:17:18;;;;;;;7.90;5.60;;;23.70;40.50;;;;;;6257691;27;80304;-61
2022/05/02 03:20:19;;;;;;;8.85;5.95;;;23.70;40.40;;;;;;6257668;27;80369;-61
2022/05/02 03:23:20;;;;;;;14.75;6.70;;;23.70;40.30;;;;;;6257751;27;81372;-62
2022/05/02 03:26:20;;;;;;;8.05;5.63;;;23.70;40.30;;;;;;6257525;27;80426;-62
2022/05/02 03:29:21;;;;;;;8.55;5.85;;;23.70;40.20;;;;;;6258132;27;80333;-62
2022/05/02 03:32:22;;;;;;;8.65;6.20;;;23.70;40.20;;;;;;6259015;27;80867;-62
2022/05/02 03:35:22;;;;;;;8.82;6.10;;;23.70;40.20;;;;;;6279440;27;80240;-61
2022/05/02 03:38:23;;;;;;;10.30;6.47;;;23.70;40.20;;;;;;6277238;27;80769;-62
2022/05/02 03:41:23;;;;;;;8.77;6.50;;;23.70;40.20;;;;;;6255822;27;81556;-62
2022/05/02 03:44:24;;;;;;;10.93;6.20;;;23.70;40.30;;;;;;6261598;27;80572;-62
2022/05/02 03:47:25;;;;;;;10.05;6.55;;;23.70;40.30;;;;;;6264652;27;80208;-62
2022/05/02 03:50:25;;;;;;;9.30;6.20;;;23.70;40.30;;;;;;6261547;27;80438;-62
2022/05/02 03:53:26;;;;;;;12.30;7.10;;;23.70;40.30;;;;;;6261429;27;80950;-62
2022/05/02 03:56:26;;;;;;;9.30;6.70;;;23.70;40.30;;;;;;6263603;27;80804;-62
2022/05/02 03:59:27;;;;;;;8.60;6.47;;;23.70;40.30;;;;;;6263388;27;81470;-62
2022/05/02 04:02:27;;;;;;;11.88;7.18;;;23.70;40.20;;;;;;6271189;27;80549;-62
2022/05/02 04:05:28;;;;;;;10.38;6.65;;;23.70;40.30;;;;;;6286021;27;81483;-62
2022/05/02 04:08:28;;;;;;;12.00;7.07;;;23.70;40.70;;;;;;6285857;27;81519;-62
2022/05/02 04:11:29;;;;;;;9.15;6.40;;;23.70;40.70;;;;;;6285794;27;80474;-62
2022/05/02 04:14:30;;;;;;;12.05;6.90;;;23.70;40.50;;;;;;6285721;27;80194;-61
2022/05/02 04:17:30;;;;;;;9.70;6.38;;;23.60;40.50;;;;;;6267720;27;81672;-61
2022/05/02 04:20:31;;;;;;;8.88;6.32;;;23.60;40.60;;;;;;6286009;27;80238;-61
2022/05/02 04:23:31;;;;;;;12.20;6.53;;;23.70;40.80;;;;;;6274549;27;80587;-62
2022/05/02 04:26:32;;;;;;;10.18;6.15;;;23.60;40.60;;;;;;6265205;27;81846;-61
2022/05/02 04:29:32;;;;;;;9.93;6.22;;;23.70;40.70;;;;;;6268165;27;80589;-62
2022/05/02 04:32:33;;;;;;;9.32;6.28;;;23.70;40.70;;;;;;6263962;27;80281;-63
2022/05/02 04:35:33;;;;;;;11.68;7.05;;;23.70;40.80;;;;;;6260793;27;80802;-62
2022/05/02 04:38:34;;;;;;;10.23;6.20;;;23.70;40.70;;;;;;6260691;27;80496;-61
2022/05/02 04:41:34;;;;;;;12.20;7.25;;;23.60;40.80;;;;;;6275553;27;80289;-62
2022/05/02 04:44:35;;;;;;;9.23;5.43;;;23.70;41.00;;;;;;6274370;27;80409;-62
2022/05/02 04:47:35;;;;;;;11.10;6.07;;;23.70;41.20;;;;;;6261014;27;80453;-61
2022/05/02 04:50:36;;;;;;;11.35;6.78;;;23.70;41.40;;;;;;6261067;27;80549;-62
2022/05/02 04:53:36;;;;;;;9.27;6.68;;;23.80;41.30;;;;;;6264122;27;80572;-61
2022/05/02 04:56:37;;;;;;;19.30;6.53;;;23.80;41.40;;;;;;6260920;27;80335;-61
2022/05/02 04:59:37;;;;;;;13.95;7.07;;;23.80;41.50;;;;;;6266166;27;80371;-62
2022/05/02 05:02:38;;;;;;;13.80;6.78;;;23.80;41.50;;;;;;6279806;27;81288;-65
2022/05/02 05:05:38;;;;;;;12.18;6.85;;;23.80;41.50;;;;;;6263775;27;80415;-63
2022/05/02 05:08:39;;;;;;;8.98;6.20;;;23.90;41.60;;;;;;6259595;27;80863;-62
2022/05/02 05:11:39;;;;;;;11.55;6.20;;;23.80;41.80;;;;;;6276679;27;81611;-62
2022/05/02 05:18:13;;;;;;;11.75;6.85;;;23.90;42.30;;;;;;6267479;27;80903;-62
2022/05/02 05:21:14;;;;;;;17.33;7.50;;;23.90;42.20;;;;;;6272371;27;80400;-62
2022/05/02 05:24:14;;;;;;;14.07;6.43;;;23.90;42.30;;;;;;6276570;27;81455;-61
2022/05/02 05:27:15;;;;;;;11.25;6.80;;;23.90;42.40;;;;;;6259830;27;80375;-67
2022/05/02 05:30:15;;;;;;;15.70;6.57;;;23.90;42.40;;;;;;6262817;27;80369;-65
2022/05/02 05:33:16;;;;;;;15.63;6.82;;;24.00;42.40;;;;;;6279859;27;80707;-65
2022/05/02 05:36:16;;;;;;;13.40;7.10;;;24.00;42.50;;;;;;6280275;27;80564;-62
2022/05/02 05:39:17;;;;;;;10.02;5.93;;;24.00;42.50;;;;;;6281395;27;80446;-63
2022/05/02 05:42:17;;;;;;;16.20;6.70;;;24.00;42.70;;;;;;6259262;27;80344;-64
2022/05/02 05:45:19;;;;;;;12.25;6.75;;;24.00;42.90;;;;;;6257833;27;80362;-63
2022/05/02 05:48:19;;;;;;;13.85;6.45;;;24.10;42.90;;;;;;6258804;27;80471;-64
2022/05/02 05:51:20;;;;;;;9.25;6.28;;;24.00;42.70;;;;;;6256932;27;80448;-63
2022/05/02 05:54:20;;;;;;;10.75;6.63;;;24.00;42.60;;;;;;6266708;27;80420;-64
2022/05/02 05:57:21;;;;;;;14.10;6.68;;;24.10;42.70;;;;;;6258925;27;80886;-63
2022/05/02 06:00:21;;;;;;;15.40;7.50;;;24.10;42.70;;;;;;6258236;27;81554;-62
2022/05/02 06:03:22;;;;;;;11.75;6.47;;;24.10;42.70;;;;;;6257683;27;81997;-63
2022/05/02 06:06:22;;;;;;;19.95;6.95;;;24.00;42.80;;;;;;6261335;27;80834;-61
2022/05/02 06:09:23;;;;;;;10.68;6.25;;;24.10;43.40;;;;;;6273900;27;80597;-62
2022/05/02 06:12:23;;;;;;;10.07;6.03;;;24.10;43.60;;;;;;6258535;27;81363;-62
2022/05/02 06:18:45;;;;;;;16.98;10.77;;;24.10;43.80;;;;;;6257364;27;83189;-62
2022/05/02 06:21:46;;;;;;;20.92;11.82;;;24.20;43.80;;;;;;6253115;27;84964;-61
2022/05/02 06:24:46;;;;;;;30.30;16.60;;;24.10;44.30;;;;;;6255732;27;83274;-61
2022/05/02 06:27:47;;;;;;;48.22;25.13;;;24.20;44.80;;;;;;6280335;27;84178;-60
2022/05/02 06:30:47;;;;;;;37.38;20.63;;;24.10;43.50;;;;;;6279618;27;84063;-60
2022/05/02 06:33:51;;;;;;;31.92;18.45;;;24.10;42.40;;;;;;6277673;27;84000;-60
2022/05/02 06:36:52;;;;;;;32.42;17.25;;;24.10;42.80;;;;;;6270935;27;83042;-60
2022/05/02 06:39:53;;;;;;;27.02;15.98;;;24.10;42.70;;;;;;6272963;27;83601;-59
2022/05/02 06:42:54;;;;;;;28.02;14.13;;;24.10;41.50;;;;;;6255851;27;83202;-60
2022/05/02 06:45:54;;;;;;;23.88;12.63;;;24.10;41.90;;;;;;6263218;27;83317;-61
2022/05/02 06:48:55;;;;;;;23.75;12.60;;;24.00;41.80;;;;;;6254312;27;83042;-60
2022/05/02 06:51:55;;;;;;;28.35;12.00;;;24.10;41.80;;;;;;6268990;27;84310;-64
2022/05/02 06:54:56;;;;;;;20.40;11.13;;;24.00;41.40;;;;;;6270899;27;83027;-60
2022/05/02 06:57:56;;;;;;;20.02;10.57;;;24.10;41.10;;;;;;6258269;27;83441;-61
2022/05/02 07:00:57;;;;;;;17.05;10.70;;;24.10;41.00;;;;;;6254242;27;82951;-61
2022/05/02 07:03:58;;;;;;;18.00;10.65;;;24.10;40.80;;;;;;6260621;27;83271;-61
2022/05/02 07:06:58;;;;;;;17.30;10.15;;;24.10;40.70;;;;;;6262876;27;83118;-61
2022/05/02 07:09:59;;;;;;;19.25;10.60;;;24.10;40.70;;;;;;6259163;27;83720;-61
2022/05/02 07:12:59;;;;;;;17.95;11.63;;;24.10;40.60;;;;;;6269317;27;83381;-60
2022/05/02 07:16:00;;;;;;;19.25;11.10;;;24.10;40.40;;;;;;6263949;27;83044;-61
2022/05/02 07:19:00;;;;;;;21.55;11.45;;;24.10;40.20;;;;;;6286102;27;83059;-60
2022/05/02 07:22:01;;;;;;;17.65;10.55;;;23.90;40.00;;;;;;6279763;27;83172;-62
2022/05/02 07:25:02;;;;;;;18.08;10.55;;;23.90;40.30;;;;;;6261659;27;83111;-65
2022/05/02 07:28:02;;;;;;;19.85;10.05;;;23.90;40.30;;;;;;6279418;27;82694;-63
2022/05/02 07:31:03;;;;;;;18.63;10.45;;;24.00;40.50;;;;;;6286559;27;83026;-62
2022/05/02 07:34:04;;;;;;;21.70;10.45;;;24.00;40.10;;;;;;6282216;27;83829;-65
2022/05/02 07:37:04;;;;;;;22.63;11.52;;;24.00;39.90;;;;;;6262481;27;83038;-63
2022/05/02 07:40:05;;;;;;;17.52;10.38;;;24.00;40.00;;;;;;6267703;27;83271;-61
2022/05/02 07:43:05;;;;;;;21.15;11.07;;;24.10;40.00;;;;;;6266036;27;83622;-62
2022/05/02 07:46:06;;;;;;;19.77;11.02;;;24.10;39.60;;;;;;6265008;27;84173;-60
2022/05/02 07:49:06;;;;;;;16.20;10.38;;;24.10;39.20;;;;;;6271850;27;84599;-61
2022/05/02 07:52:07;;;;;;;18.67;11.32;;;24.00;39.50;;;;;;6265785;27;83431;-61
2022/05/02 07:55:07;;;;;;;16.23;10.18;;;24.10;39.60;;;;;;6264654;27;82998;-62
2022/05/02 07:58:08;;;;;;;17.08;10.95;;;24.10;39.60;;;;;;6262126;27;83749;-61
2022/05/02 08:01:09;;;;;;;21.90;11.45;;;24.00;39.10;;;;;;6265489;27;84718;-64
2022/05/02 08:04:09;;;;;;;21.30;11.05;;;24.10;38.90;;;;;;6262699;27;83055;-63
2022/05/02 08:07:11;;;;;;;16.80;10.52;;;24.10;38.80;;;;;;6263015;27;83160;-63
2022/05/02 08:10:11;;;;;;;18.00;11.00;;;24.10;38.70;;;;;;6260627;27;84226;-64
2022/05/02 08:13:12;;;;;;;17.27;11.45;;;24.10;39.00;;;;;;6272303;27;84151;-63
2022/05/02 08:16:12;;;;;;;17.23;9.95;;;24.10;39.00;;;;;;6263803;27;84044;-62
2022/05/02 08:19:13;;;;;;;15.65;10.48;;;24.10;39.20;;;;;;6284607;27;83214;-62
2022/05/02 08:28:52;;;;;;;19.50;10.55;;;24.20;39.90;;;;;;6276212;27;83151;-61
2022/05/02 08:31:52;;;;;;;21.35;11.15;;;24.30;40.00;;;;;;6282078;27;82971;-62
2022/05/02 08:34:53;;;;;;;18.42;11.90;;;24.30;39.70;;;;;;6259987;27;85436;-60
2022/05/02 08:37:54;;;;;;;19.90;12.35;;;24.30;39.50;;;;;;6257142;27;83435;-61
2022/05/02 08:40:54;;;;;;;21.55;12.27;;;24.30;39.70;;;;;;6265834;27;83284;-61
2022/05/02 08:43:55;;;;;;;20.02;12.70;;;24.30;39.80;;;;;;6257515;27;82881;-61
2022/05/02 08:46:56;;;;;;;26.52;13.48;;;24.30;39.20;;;;;;6257480;27;84735;-61
2022/05/02 08:49:56;;;;;;;21.55;14.23;;;24.20;39.00;;;;;;6277162;27;83270;-62
2022/05/02 08:52:57;;;;;;;24.25;13.65;;;24.10;38.80;;;;;;6282153;27;83071;-61
2022/05/02 08:55:57;;;;;;;23.27;14.45;;;24.20;39.00;;;;;;6263071;27;82960;-61
2022/05/02 08:58:58;;;;;;;22.30;13.73;;;24.20;39.30;;;;;;6267363;27;83183;-63
2022/05/02 09:01:58;;;;;;;17.92;12.18;;;24.20;39.70;;;;;;6258234;27;82862;-61
2022/05/02 09:05:00;;;;;;;23.58;13.02;;;24.20;39.90;;;;;;6267035;27;83012;-62
2022/05/02 09:08:00;;;;;;;23.30;12.43;;;24.30;41.50;;;;;;6259171;27;83548;-61
2022/05/02 09:11:01;;;;;;;21.67;12.55;;;24.30;42.00;;;;;;6280147;27;86031;-61
2022/05/02 09:14:01;;;;;;;19.17;11.98;;;24.40;41.30;;;;;;6273942;27;82979;-61
2022/05/02 09:17:02;;;;;;;31.75;15.43;;;24.40;41.20;;;;;;6257142;27;83655;-61
2022/05/02 09:20:02;;;;;;;25.80;14.70;;;24.40;40.80;;;;;;6272518;27;83382;-61
2022/05/02 09:23:03;;;;;;;23.67;14.18;;;24.40;40.40;;;;;;6281671;27;82911;-61
2022/05/02 09:26:03;;;;;;;25.73;14.43;;;24.40;39.60;;;;;;6257892;27;84355;-61
2022/05/02 09:29:03;;;;;;;20.20;12.93;;;24.40;38.90;;;;;;6260780;27;84022;-61
2022/05/02 09:32:05;;;;;;;24.40;13.10;;;24.40;38.10;;;;;;6280455;27;83738;-62
2022/05/02 09:35:05;;;;;;;17.63;10.93;;;24.40;37.00;;;;;;6267385;27;83211;-62
2022/05/02 09:38:06;;;;;;;17.02;10.20;;;24.30;37.20;;;;;;6256651;27;85109;-62
2022/05/02 09:41:06;;;;;;;17.23;10.00;;;24.40;38.00;;;;;;6276085;27;83651;-62
2022/05/02 09:50:45;;;;;;;11.88;8.18;;;24.40;38.10;;;;;;6259114;27;80467;-62
2022/05/02 09:53:46;;;;;;;11.63;7.25;;;24.50;37.10;;;;;;6259613;27;80297;-62
2022/05/02 09:56:46;;;;;;;13.00;6.43;;;24.50;36.60;;;;;;6259711;27;80717;-61
2022/05/02 09:59:48;;;;;;;10.10;6.43;;;24.50;36.70;;;;;;6259632;27;80407;-62
2022/05/02 10:02:48;;;;;;;10.25;5.80;;;24.50;36.20;;;;;;6259439;27;79874;-62
2022/05/02 10:05:49;;;;;;;7.90;4.75;;;24.40;34.90;;;;;;6259012;27;80456;-62
2022/05/02 10:08:50;;;;;;;9.85;5.13;;;24.50;34.80;;;;;;6258480;27;81555;-61
2022/05/02 10:11:51;;;;;;;8.80;5.15;;;24.50;35.10;;;;;;6272837;27;80890;-63
2022/05/02 10:14:52;;;;;;;6.75;4.40;;;24.60;34.80;;;;;;6260908;27;81613;-63
2022/05/02 10:17:52;;;;;;;6.82;4.60;;;24.50;34.10;;;;;;6258587;27;81961;-61
2022/05/02 10:20:54;;;;;;;10.52;4.70;;;24.50;33.50;;;;;;6258646;27;80586;-61
2022/05/02 10:23:54;;;;;;;7.22;4.47;;;24.50;32.70;;;;;;6258757;27;80351;-63
2022/05/02 10:26:55;;;;;;;11.63;5.47;;;24.40;33.00;;;;;;6258680;27;80752;-63
2022/05/02 10:29:55;;;;;;;5.82;4.47;;;24.50;33.80;;;;;;6258519;27;80605;-62
2022/05/02 10:32:56;;;;;;;9.65;4.60;;;24.50;33.60;;;;;;6257113;27;80912;-62
2022/05/02 10:35:57;;;;;;;10.25;4.70;;;24.60;34.10;;;;;;6258385;27;81304;-61
2022/05/02 10:39:01;;;;;;;9.77;4.90;;;24.50;33.50;;;;;;6259223;27;80365;-61
2022/05/02 10:42:02;;;;;;;13.48;5.53;;;24.40;33.40;;;;;;6259446;27;80718;-61
2022/05/02 10:45:02;;;;;;;8.90;5.07;;;24.50;34.20;;;;;;6258431;27;80719;-61
2022/05/02 10:48:03;;;;;;;8.88;4.97;;;24.50;34.20;;;;;;6259044;27;80753;-61
2022/05/02 10:51:03;;;;;;;9.25;5.40;;;24.50;34.30;;;;;;6278265;27;80333;-64
2022/05/02 10:54:04;;;;;;;13.40;5.00;;;24.50;34.60;;;;;;6279890;27;81339;-62
2022/05/02 10:57:04;;;;;;;10.75;5.05;;;24.60;35.80;;;;;;6258112;27;81486;-60
2022/05/02 11:00:06;;;;;;;7.90;4.38;;;24.60;35.00;;;;;;6258287;27;80644;-61
2022/05/02 11:03:06;;;;;;;6.93;4.53;;;24.60;35.50;;;;;;6257918;27;80521;-61
2022/05/02 11:06:08;;;;;;;7.18;4.55;;;24.70;36.10;;;;;;6259064;27;81660;-60
2022/05/02 11:09:10;;;;;;;6.45;4.60;;;24.60;35.40;;;;;;6269883;27;80502;-59
2022/05/02 11:12:10;;;;;;;7.00;4.80;;;24.70;36.90;;;;;;6267494;27;80404;-62
2022/05/02 11:15:14;;;;;;;10.63;4.93;;;24.70;37.20;;;;;;6270439;27;81599;-63
2022/05/02 11:20:41;;;;;;;6.35;4.22;;;24.80;36.50;;;;;;6259973;27;80378;-60
2022/05/02 11:21:35;;;;;;;6.80;3.92;;;24.80;35.60;;;;;;6266037;27;83634;-62
2022/05/02 11:24:36;;;;;;;7.57;4.47;;;24.80;35.80;;;;;;6271731;27;80489;-61
2022/05/02 11:27:37;;;;;;;13.85;5.25;;;24.80;35.60;;;;;;6273662;27;80873;-59
2022/05/02 11:30:37;;;;;;;9.45;4.57;;;24.80;34.80;;;;;;6283048;27;80423;-60
2022/05/02 11:33:41;;;;;;;5.95;4.70;;;24.90;35.40;;;;;;6280822;27;80326;-60
2022/05/02 11:36:41;;;;;;;4.85;4.18;;;24.90;35.10;;;;;;6262689;27;80272;-63
2022/05/02 11:39:42;;;;;;;9.02;4.50;;;25.00;35.90;;;;;;6259231;27;80526;-62
2022/05/02 11:42:42;;;;;;;9.23;4.95;;;25.00;35.60;;;;;;6261951;27;80866;-62
2022/05/02 11:45:43;;;;;;;8.10;5.30;;;25.00;35.70;;;;;;6257375;27;81019;-63
2022/05/02 11:48:43;;;;;;;8.23;5.10;;;25.00;35.40;;;;;;6279615;27;80854;-63
2022/05/02 11:51:44;;;;;;;9.52;4.68;;;25.10;35.50;;;;;;6278368;27;80546;-63
2022/05/02 11:54:45;;;;;;;7.43;4.88;;;25.10;35.60;;;;;;6257435;27;80204;-60
2022/05/02 11:57:45;;;;;;;9.00;5.20;;;25.10;35.30;;;;;;6269742;27;81018;-63
2022/05/02 12:00:46;;;;;;;5.45;4.50;;;25.10;34.20;;;;;;6281672;27;80100;-59
2022/05/02 12:03:46;;;;;;;10.90;5.43;;;25.10;33.10;;;;;;6263111;27;81769;-62
2022/05/02 12:06:47;;;;;;;5.53;4.30;;;25.10;33.40;;;;;;6260151;27;81403;-62
2022/05/02 12:09:47;;;;;;;8.30;4.78;;;25.00;33.60;;;;;;6261307;27;81404;-60
2022/05/02 12:12:48;;;;;;;8.13;4.95;;;25.10;33.80;;;;;;6261178;27;80814;-62
2022/05/02 12:15:49;;;;;;;8.30;4.88;;;25.00;32.90;;;;;;6283780;27;80759;-60
2022/05/02 12:18:49;;;;;;;6.13;4.22;;;24.90;33.60;;;;;;6272145;27;80324;-60
2022/05/02 12:21:50;;;;;;;6.13;4.80;;;24.90;33.40;;;;;;6286298;27;80800;-61
2022/05/02 12:24:52;;;;;;;8.40;5.35;;;24.90;33.20;;;;;;6261112;27;80571;-61
2022/05/02 12:27:52;;;;;;;8.45;4.35;;;24.90;33.40;;;;;;6284030;27;80814;-61
2022/05/02 12:30:53;;;;;;;12.30;5.00;;;24.90;33.70;;;;;;6274025;27;83083;-61
2022/05/02 12:33:54;;;;;;;7.35;4.60;;;24.90;34.30;;;;;;6265117;27;80330;-60
2022/05/02 12:36:54;;;;;;;10.30;5.28;;;24.90;34.20;;;;;;6261135;27;80293;-66
2022/05/02 12:39:55;;;;;;;10.35;5.22;;;24.90;33.80;;;;;;6283912;27;80032;-63
2022/05/02 12:42:55;;;;;;;6.97;4.55;;;24.90;33.60;;;;;;6280031;27;80439;-63
2022/05/02 12:45:56;;;;;;;8.05;4.55;;;24.90;33.50;;;;;;6260391;27;81365;-64
2022/05/02 12:48:56;;;;;;;10.00;5.65;;;24.90;33.70;;;;;;6260746;27;80285;-63
2022/05/02 12:51:57;;;;;;;6.97;4.28;;;24.90;32.70;;;;;;6261111;27;81525;-64
2022/05/02 12:54:57;;;;;;;9.35;4.82;;;24.80;32.90;;;;;;6281838;27;80521;-62
2022/05/02 13:01:17;;;;;;;6.63;4.45;;;24.70;33.00;;;;;;6259720;27;80684;-63
2022/05/02 13:04:17;;;;;;;7.32;4.47;;;24.70;33.10;;;;;;6260057;27;80553;-62
2022/05/02 13:07:18;;;;;;;9.90;5.28;;;24.70;33.30;;;;;;6259826;27;80397;-62
2022/05/02 13:10:19;;;;;;;8.05;4.53;;;24.70;33.10;;;;;;6260008;27;80017;-62
2022/05/02 13:13:19;;;;;;;8.45;4.47;;;24.70;33.30;;;;;;6264101;27;80379;-62
2022/05/02 13:16:20;;;;;;;6.35;4.80;;;24.80;33.50;;;;;;6261445;27;80227;-62
2022/05/02 13:19:20;;;;;;;5.38;4.25;;;24.80;33.50;;;;;;6260124;27;80559;-62
2022/05/02 13:22:21;;;;;;;7.97;4.70;;;24.80;33.70;;;;;;6258260;27;82461;-62
2022/05/02 13:25:22;;;;;;;10.27;4.63;;;24.80;33.20;;;;;;6269615;27;80792;-62
2022/05/02 13:28:25;;;;;;;9.90;4.70;;;24.80;33.70;;;;;;6283814;27;80714;-63
2022/05/02 13:31:27;;;;;;;9.88;4.65;;;24.90;33.60;;;;;;6285019;27;84465;-63
2022/05/02 13:34:31;;;;;;;7.22;4.28;;;24.80;33.40;;;;;;6270768;27;81536;-62
2022/05/02 13:37:32;;;;;;;5.60;4.35;;;24.80;33.90;;;;;;6274070;27;80380;-62
2022/05/02 13:40:32;;;;;;;6.80;4.45;;;24.90;33.90;;;;;;6265638;27;81391;-64
2022/05/02 13:43:34;;;;;;;10.90;4.97;;;24.80;33.60;;;;;;6258555;27;80890;-63
2022/05/02 13:46:35;;;;;;;6.45;4.80;;;24.80;33.30;;;;;;6272499;27;80352;-63
2022/05/02 13:49:35;;;;;;;8.75;4.57;;;24.80;33.30;;;;;;6276444;27;80525;-63
2022/05/02 13:52:36;;;;;;;7.38;5.20;;;24.90;33.70;;;;;;6260538;27;87811;-63
2022/05/02 13:55:36;;;;;;;5.78;4.47;;;24.80;33.10;;;;;;6276045;27;80489;-62
2022/05/02 13:58:37;;;;;;;10.95;5.47;;;24.80;33.30;;;;;;6271932;27;82713;-62
2022/05/02 14:01:39;;;;;;;7.72;4.80;;;24.80;33.50;;;;;;6269777;27;80534;-61
2022/05/02 14:04:42;;;;;;;10.23;5.30;;;24.70;32.90;;;;;;6266043;27;80499;-63
2022/05/02 14:07:47;;;;;;;7.13;4.88;;;24.70;33.90;;;;;;6273681;27;80440;-61
2022/05/02 14:10:47;;;;;;;11.77;4.60;;;24.70;33.80;;;;;;6257511;27;81744;-61
2022/05/02 14:13:48;;;;;;;9.82;4.65;;;24.70;34.50;;;;;;6259347;27;80133;-61
2022/05/02 14:16:48;;;;;;;8.52;4.57;;;24.80;34.70;;;;;;6282397;27;80106;-61
2022/05/02 14:19:49;;;;;;;8.35;4.35;;;24.70;33.90;;;;;;6278652;27;80490;-60
2022/05/02 14:22:51;;;;;;;11.25;4.40;;;24.70;33.30;;;;;;6257859;27;80640;-61
2022/05/02 14:25:52;;;;;;;9.60;4.55;;;24.70;34.20;;;;;;6271208;27;80246;-61
2022/05/02 14:28:53;;;;;;;6.60;4.07;;;24.80;34.30;;;;;;6284318;27;80158;-61
2022/05/02 14:31:54;;;;;;;5.63;4.13;;;24.80;34.20;;;;;;6262377;27;82017;-61
2022/05/02 14:34:54;;;;;;;9.35;4.80;;;24.80;33.90;;;;;;6261028;27;80569;-61
2022/05/02 14:37:55;;;;;;;6.80;4.47;;;24.90;34.40;;;;;;6262092;27;80279;-61
2022/05/02 14:40:56;;;;;;;8.40;4.20;;;24.90;33.90;;;;;;6266815;27;81586;-60
2022/05/02 14:43:56;;;;;;;7.95;4.65;;;24.90;34.40;;;;;;6262334;27;80488;-61
2022/05/02 14:47:00;;;;;;;8.32;4.55;;;24.90;33.70;;;;;;6253695;27;80593;-61
2022/05/02 14:50:00;;;;;;;6.80;4.45;;;24.90;33.80;;;;;;6270827;27;81661;-61
2022/05/02 14:53:01;;;;;;;9.07;4.80;;;24.90;34.20;;;;;;6264120;27;80551;-61
2022/05/02 14:56:01;;;;;;;8.38;4.53;;;24.90;34.20;;;;;;6266692;27;80388;-62
2022/05/02 14:59:02;;;;;;;8.23;4.25;;;24.90;34.30;;;;;;6284277;27;81106;-60
2022/05/02 15:02:02;;;;;;;6.57;4.30;;;24.90;35.20;;;;;;6284014;27;80581;-60
2022/05/02 15:05:03;;;;;;;8.50;4.47;;;24.90;35.00;;;;;;6280384;27;80178;-65
2022/05/02 15:08:04;;;;;;;8.85;3.83;;;24.90;35.60;;;;;;6271224;27;80405;-64
2022/05/02 15:11:04;;;;;;;6.60;4.07;;;24.90;36.40;;;;;;6257109;27;80794;-63
2022/05/02 15:14:05;;;;;;;7.30;4.45;;;24.90;38.90;;;;;;6275081;27;80227;-62
2022/05/02 15:17:06;;;;;;;5.82;4.05;;;24.90;39.20;;;;;;6272446;27;80976;-62
2022/05/02 15:20:07;;;;;;;5.85;4.05;;;24.90;39.00;;;;;;6275385;27;80737;-62
2022/05/02 15:23:07;;;;;;;6.53;4.45;;;24.90;37.50;;;;;;6272510;27;80661;-62
2022/05/02 15:26:08;;;;;;;4.93;4.15;;;24.90;36.40;;;;;;6264809;27;81154;-62
2022/05/02 15:39:06;;;;;;;21.10;9.48;;;24.90;36.10;;;;;;6264061;27;81441;-63
2022/05/02 15:42:09;;;;;;;16.30;10.05;;;24.90;36.10;;;;;;6278126;27;80360;-62
2022/05/02 15:45:09;;;;;;;16.58;9.63;;;24.90;36.20;;;;;;6275752;27;82970;-62
2022/05/02 15:48:10;;;;;;;12.93;8.68;;;24.90;36.60;;;;;;6264181;27;82869;-63
2022/05/02 15:51:10;;;;;;;13.55;8.80;;;24.90;36.40;;;;;;6261801;27;80490;-63
2022/05/02 15:54:11;;;;;;;13.02;8.43;;;24.90;36.20;;;;;;6287153;27;80293;-63
2022/05/02 15:57:11;;;;;;;14.95;8.13;;;24.90;36.20;;;;;;6267901;27;80520;-65
2022/05/02 16:00:15;;;;;;;14.45;7.47;;;24.90;36.30;;;;;;6272659;27;80283;-63
2022/05/02 16:03:15;;;;;;;12.15;7.53;;;24.90;36.30;;;;;;6278912;27;80611;-63
2022/05/02 16:06:16;;;;;;;12.55;7.75;;;24.90;37.20;;;;;;6268254;27;81483;-63
2022/05/02 16:12:36;;;;;;;18.42;7.60;;;24.90;36.80;;;;;;6287972;27;81455;-62
2022/05/02 16:15:36;;;;;;;9.73;6.68;;;24.90;36.80;;;;;;6285548;27;80514;-63